createdAt,value
2022-10-19T00:01:20.643Z,32
2022-10-19T00:03:53.524Z,32
2022-10-19T00:06:24.653Z,32
2022-10-19T00:08:57.782Z,32
2022-10-19T00:11:28.952Z,35
2022-10-19T00:14:00.184Z,36
2022-10-19T00:16:31.240Z,33
2022-10-19T00:19:02.378Z,36
2022-10-19T00:21:39.599Z,35
2022-10-19T00:24:10.825Z,32
2022-10-19T00:26:41.421Z,32
2022-10-19T00:29:12.871Z,32
2022-10-19T00:31:44.869Z,31
2022-10-19T00:34:15.730Z,32
2022-10-19T00:36:46.760Z,32
2022-10-19T00:39:19.862Z,32
2022-10-19T00:41:50.582Z,31
2022-10-19T00:44:21.394Z,32
2022-10-19T00:46:52.401Z,32
2022-10-19T00:49:24.350Z,32
2022-10-19T00:51:53.724Z,31
2022-10-19T00:54:25.074Z,32
2022-10-19T00:56:57.216Z,32
2022-10-19T00:59:27.912Z,32
2022-10-19T01:02:00.345Z,32
2022-10-19T01:04:32.141Z,32
2022-10-19T01:07:02.979Z,32
2022-10-19T01:09:33.500Z,32
2022-10-19T01:12:03.745Z,32
2022-10-19T01:14:38.218Z,32
2022-10-19T01:17:10.200Z,32
2022-10-19T01:19:40.779Z,32
2022-10-19T01:22:11.952Z,32
2022-10-19T01:24:42.946Z,32
2022-10-19T01:27:13.921Z,28
2022-10-19T01:29:44.831Z,32
2022-10-19T01:32:15.810Z,28
2022-10-19T01:34:47.623Z,28
2022-10-19T01:37:16.877Z,27
2022-10-19T01:39:49.196Z,28
2022-10-19T01:42:18.733Z,28
2022-10-19T01:44:50.364Z,25
2022-10-19T01:47:21.665Z,24
2022-10-19T01:49:53.027Z,24
2022-10-19T01:52:23.767Z,26
2022-10-19T01:54:55.460Z,24
2022-10-19T01:57:26.651Z,24
2022-10-19T01:59:57.917Z,24
2022-10-19T02:02:30.405Z,23
2022-10-19T02:05:02.207Z,24
2022-10-19T02:07:33.388Z,24
2022-10-19T02:10:04.669Z,20
2022-10-19T02:12:36.573Z,24
2022-10-19T02:15:07.843Z,24
2022-10-19T02:17:36.991Z,24
2022-10-19T02:20:07.985Z,21
2022-10-19T02:22:39.083Z,25
2022-10-19T02:25:09.958Z,24
2022-10-19T02:27:40.997Z,24
2022-10-19T02:30:10.101Z,22
2022-10-19T02:32:41.082Z,28
2022-10-19T02:35:11.870Z,24
2022-10-19T02:37:45.307Z,21
2022-10-19T02:40:14.668Z,24
2022-10-19T02:42:45.919Z,24
2022-10-19T02:45:16.818Z,24
2022-10-19T02:47:47.961Z,20
2022-10-19T02:50:19.462Z,24
2022-10-19T02:52:50.597Z,24
2022-10-19T02:55:21.366Z,21
2022-10-19T02:57:50.695Z,20
2022-10-19T03:00:21.572Z,24
2022-10-19T03:02:51.657Z,27
2022-10-19T03:05:23.126Z,24
2022-10-19T03:07:55.167Z,24
2022-10-19T03:10:25.862Z,24
2022-10-19T03:12:56.635Z,26
2022-10-19T03:15:26.957Z,24
2022-10-19T03:17:58.869Z,24
2022-10-19T03:20:29.699Z,28
2022-10-19T03:23:00.693Z,28
2022-10-19T03:25:31.530Z,28
2022-10-19T03:28:02.024Z,28
2022-10-19T03:30:33.097Z,28
2022-10-19T03:33:04.509Z,28
2022-10-19T03:35:37.258Z,24
2022-10-19T03:38:08.933Z,28
2022-10-19T03:40:40.530Z,28
2022-10-19T03:43:11.481Z,28
2022-10-19T03:45:42.864Z,28
2022-10-19T03:48:14.486Z,28
2022-10-19T03:50:46.486Z,32
2022-10-19T03:53:16.922Z,28
2022-10-19T03:55:47.507Z,28
2022-10-19T03:58:17.157Z,32
2022-10-19T04:00:47.819Z,30
2022-10-19T04:03:25.671Z,32
2022-10-19T04:05:58.157Z,29
2022-10-19T04:08:28.959Z,30
2022-10-19T04:11:00.977Z,31
2022-10-19T04:13:32.983Z,28
2022-10-19T04:16:03.646Z,32
2022-10-19T04:18:34.347Z,32
2022-10-19T04:21:06.800Z,32
2022-10-19T04:23:36.327Z,32
2022-10-19T04:26:07.105Z,32
2022-10-19T04:28:36.601Z,34
2022-10-19T04:31:07.111Z,34
2022-10-19T04:33:39.369Z,33
2022-10-19T04:36:09.965Z,36
2022-10-19T04:38:41.072Z,36
2022-10-19T04:41:12.083Z,36
2022-10-19T04:43:42.915Z,36
2022-10-19T04:46:12.883Z,36
2022-10-19T04:48:43.928Z,36
2022-10-19T04:51:15.154Z,32
2022-10-19T04:53:45.399Z,32
2022-10-19T04:56:16.652Z,35
2022-10-19T04:58:47.467Z,32
2022-10-19T05:01:18.422Z,35
2022-10-19T05:03:47.665Z,32
2022-10-19T05:06:19.137Z,33
2022-10-19T05:08:49.961Z,32
2022-10-19T05:11:21.109Z,32
2022-10-19T05:13:51.973Z,36
2022-10-19T05:16:21.346Z,36
2022-10-19T05:18:51.048Z,36
2022-10-19T05:21:22.747Z,38
2022-10-19T05:23:53.576Z,36
2022-10-19T05:26:24.374Z,40
2022-10-19T05:28:55.529Z,37
2022-10-19T05:31:25.780Z,39
2022-10-19T05:33:58.258Z,40
2022-10-19T05:36:27.159Z,40
2022-10-19T05:38:57.767Z,40
2022-10-19T05:41:29.379Z,40
2022-10-19T05:44:00.345Z,40
2022-10-19T05:46:31.499Z,44
2022-10-19T05:49:03.236Z,40
2022-10-19T05:51:33.964Z,48
2022-10-19T05:54:10.961Z,48
2022-10-19T05:56:41.689Z,43
2022-10-19T05:59:12.988Z,49
2022-10-19T06:01:43.802Z,50
2022-10-19T06:06:46.843Z,48
2022-10-19T06:09:17.241Z,48
2022-10-19T06:11:48.073Z,48
2022-10-19T06:14:19.013Z,48
2022-10-19T06:16:49.960Z,44
2022-10-19T06:19:21.505Z,48
2022-10-19T06:21:53.786Z,48
2022-10-19T06:24:24.100Z,45
2022-10-19T06:26:54.753Z,49
2022-10-19T06:29:25.774Z,48
2022-10-19T06:31:56.506Z,48
2022-10-19T06:34:27.101Z,48
2022-10-19T06:36:58.393Z,49
2022-10-19T06:39:29.142Z,53
2022-10-19T06:42:00.462Z,48
2022-10-19T06:44:32.187Z,51
2022-10-19T06:47:03.315Z,53
2022-10-19T06:49:33.680Z,54
2022-10-19T06:52:05.048Z,64
2022-10-19T06:54:33.990Z,71
2022-10-19T06:57:04.748Z,60
2022-10-19T06:59:35.271Z,55
2022-10-19T07:02:07.519Z,48
2022-10-19T07:04:38.269Z,47
2022-10-19T07:07:10.134Z,45
2022-10-19T07:09:40.835Z,48
2022-10-19T07:12:12.948Z,48
2022-10-19T07:14:43.442Z,48
2022-10-19T07:17:14.164Z,44
2022-10-19T07:19:45.050Z,44
2022-10-19T07:22:19.794Z,48
2022-10-19T07:24:46.560Z,47
2022-10-19T07:27:16.940Z,44
2022-10-19T07:29:49.222Z,44
2022-10-19T07:32:21.329Z,44
2022-10-19T07:34:51.490Z,48
2022-10-19T07:37:25.401Z,44
2022-10-19T07:39:56.045Z,44
2022-10-19T07:42:26.848Z,45
2022-10-19T07:44:57.826Z,46
2022-10-19T07:47:29.630Z,48
2022-10-19T07:50:00.423Z,44
2022-10-19T07:52:34.412Z,44
2022-10-19T07:55:02.499Z,42
2022-10-19T07:57:32.823Z,40
2022-10-19T08:00:04.110Z,44
2022-10-19T08:02:39.556Z,43
2022-10-19T08:05:07.970Z,44
2022-10-19T08:07:37.157Z,45
2022-10-19T08:10:07.726Z,40
2022-10-19T08:12:37.969Z,40
2022-10-19T08:15:08.317Z,40
2022-10-19T08:17:46.687Z,40
2022-10-19T08:20:17.428Z,44
2022-10-19T08:22:48.318Z,40
2022-10-19T08:25:17.313Z,45
2022-10-19T08:27:48.251Z,44
2022-10-19T08:30:18.850Z,44
2022-10-19T08:32:49.415Z,40
2022-10-19T08:35:19.771Z,43
2022-10-19T08:37:50.682Z,44
2022-10-19T08:40:20.779Z,44
2022-10-19T08:42:51.100Z,44
2022-10-19T08:45:25.561Z,48
2022-10-19T08:47:55.678Z,40
2022-10-19T08:50:26.207Z,44
2022-10-19T08:52:57.070Z,47
2022-10-19T08:55:27.286Z,44
2022-10-19T08:57:58.230Z,44
2022-10-19T09:00:30.218Z,44
2022-10-19T09:03:00.617Z,43
2022-10-19T09:05:31.199Z,46
2022-10-19T09:08:01.920Z,44
2022-10-19T09:10:32.499Z,45
2022-10-19T09:13:04.270Z,44
2022-10-19T09:15:34.433Z,40
2022-10-19T09:18:04.839Z,44
2022-10-19T09:20:36.840Z,44
2022-10-19T09:23:13.128Z,41
2022-10-19T09:25:37.994Z,44
2022-10-19T09:28:08.463Z,40
2022-10-19T09:30:38.959Z,41
2022-10-19T09:33:09.174Z,40
2022-10-19T09:35:38.788Z,36
2022-10-19T09:38:09.738Z,36
2022-10-19T09:40:40.501Z,48
2022-10-19T09:43:11.227Z,40
2022-10-19T09:45:43.957Z,37
2022-10-19T09:48:14.539Z,36
2022-10-19T09:50:46.090Z,33
2022-10-19T09:53:16.858Z,36
2022-10-19T09:58:18.115Z,32
2022-10-19T10:00:49.137Z,32
2022-10-19T10:03:21.413Z,32
2022-10-19T10:05:52.099Z,32
2022-10-19T10:08:23.985Z,32
2022-10-19T10:10:54.958Z,35
2022-10-19T10:13:26.663Z,32
2022-10-19T10:15:57.909Z,32
2022-10-19T10:18:28.557Z,32
2022-10-19T10:21:00.379Z,29
2022-10-19T10:23:30.964Z,32
2022-10-19T10:26:01.357Z,29
2022-10-19T10:28:33.089Z,27
2022-10-19T10:31:03.798Z,28
2022-10-19T10:33:44.011Z,29
2022-10-19T10:36:05.535Z,28
2022-10-19T10:38:36.923Z,28
2022-10-19T10:41:07.965Z,28
2022-10-19T10:43:41.208Z,28
2022-10-19T10:46:11.822Z,32
2022-10-19T10:48:42.425Z,28
2022-10-19T10:51:13.404Z,32
2022-10-19T10:53:44.379Z,28
2022-10-19T10:56:14.931Z,30
2022-10-19T10:58:46.173Z,28
2022-10-19T11:01:16.438Z,28
2022-10-19T11:03:48.258Z,28
2022-10-19T11:06:19.112Z,25
2022-10-19T11:08:50.490Z,28
2022-10-19T11:11:20.888Z,28
2022-10-19T11:13:51.087Z,31
2022-10-19T11:16:21.892Z,28
2022-10-19T11:18:53.178Z,28
2022-10-19T11:21:23.790Z,28
2022-10-19T11:23:54.513Z,28
2022-10-19T11:26:25.238Z,28
2022-10-19T11:28:57.099Z,28
2022-10-19T11:31:29.484Z,28
2022-10-19T11:33:57.875Z,28
2022-10-19T11:36:28.526Z,32
2022-10-19T11:38:59.047Z,29
2022-10-19T11:41:29.647Z,29
2022-10-19T11:44:00.880Z,24
2022-10-19T11:46:31.382Z,28
2022-10-19T11:49:02.415Z,28
2022-10-19T11:51:32.882Z,24
2022-10-19T11:54:03.546Z,28
2022-10-19T11:56:51.487Z,28
2022-10-19T11:59:06.691Z,28
2022-10-19T12:01:37.616Z,28
2022-10-19T12:04:13.735Z,28
2022-10-19T12:06:44.752Z,28
2022-10-19T12:09:15.725Z,32
2022-10-19T12:11:46.841Z,28
2022-10-19T12:14:18.437Z,28
2022-10-19T12:16:49.126Z,28
2022-10-19T12:19:19.549Z,32
2022-10-19T12:21:51.141Z,32
2022-10-19T12:24:21.426Z,32
2022-10-19T12:26:52.257Z,28
2022-10-19T12:29:22.399Z,32
2022-10-19T12:31:52.690Z,32
2022-10-19T12:34:25.425Z,28
2022-10-19T12:36:56.002Z,32
2022-10-19T12:39:28.602Z,35
2022-10-19T12:41:59.371Z,35
2022-10-19T12:44:29.679Z,32
2022-10-19T12:47:01.042Z,36
2022-10-19T12:49:31.533Z,44
2022-10-19T12:52:01.898Z,36
2022-10-19T12:54:32.177Z,37
2022-10-19T12:57:04.554Z,32
2022-10-19T12:59:35.820Z,35
2022-10-19T13:02:06.260Z,36
2022-10-19T13:04:37.145Z,32
2022-10-19T13:07:07.127Z,36
2022-10-19T13:09:37.742Z,36
2022-10-19T13:12:08.773Z,36
2022-10-19T13:14:39.390Z,36
2022-10-19T13:17:10.375Z,36
2022-10-19T13:19:42.056Z,32
2022-10-19T13:22:12.815Z,32
2022-10-19T13:24:43.546Z,34
2022-10-19T13:27:14.357Z,32
2022-10-19T13:29:45.565Z,35
2022-10-19T13:32:16.644Z,36
2022-10-19T13:34:46.803Z,32
2022-10-19T13:37:17.471Z,36
2022-10-19T13:39:52.105Z,32
2022-10-19T13:42:26.667Z,35
2022-10-19T13:44:58.098Z,38
2022-10-19T13:47:30.664Z,38
2022-10-19T13:50:01.272Z,36
2022-10-19T13:52:32.325Z,38
2022-10-19T13:55:02.200Z,35
2022-10-19T13:57:33.952Z,40
2022-10-19T14:00:05.324Z,32
2022-10-19T14:02:36.110Z,40
2022-10-19T14:05:06.874Z,32
2022-10-19T14:07:36.751Z,38
2022-10-19T14:10:07.589Z,37
2022-10-19T14:12:38.450Z,32
2022-10-19T14:15:09.221Z,33
2022-10-19T14:17:44.077Z,32
2022-10-19T14:20:14.687Z,32
2022-10-19T14:22:45.282Z,32
2022-10-19T14:25:17.855Z,35
2022-10-19T14:27:48.425Z,30
2022-10-19T14:30:19.759Z,32
2022-10-19T14:32:50.111Z,32
2022-10-19T14:35:20.709Z,28
2022-10-19T14:37:51.213Z,34
2022-10-19T14:40:23.566Z,32
2022-10-19T14:42:53.903Z,32
2022-10-19T14:45:26.926Z,34
2022-10-19T14:47:57.116Z,32
2022-10-19T14:50:28.423Z,36
2022-10-19T14:52:58.949Z,48
2022-10-19T14:55:30.076Z,54
2022-10-19T14:58:00.601Z,41
2022-10-19T15:00:31.276Z,36
2022-10-19T15:03:01.835Z,34
2022-10-19T15:05:30.547Z,36
2022-10-19T15:08:01.726Z,36
2022-10-19T15:10:35.662Z,34
2022-10-19T15:13:05.542Z,33
2022-10-19T15:15:36.907Z,32
2022-10-19T15:18:16.295Z,32
2022-10-19T15:20:43.771Z,36
2022-10-19T15:23:07.695Z,34
2022-10-19T15:25:38.910Z,34
2022-10-19T15:30:41.376Z,32
2022-10-19T15:33:12.858Z,32
2022-10-19T15:35:44.356Z,34
2022-10-19T15:38:15.198Z,36
2022-10-19T15:40:46.388Z,32
2022-10-19T15:43:17.663Z,32
2022-10-19T15:45:49.902Z,32
2022-10-19T15:48:20.773Z,35
2022-10-19T15:50:52.089Z,35
2022-10-19T15:53:23.438Z,40
2022-10-19T15:55:54.499Z,35
2022-10-19T15:58:25.513Z,32
2022-10-19T16:00:58.351Z,32
2022-10-19T16:03:28.467Z,34
2022-10-19T16:06:00.086Z,36
2022-10-19T16:08:31.455Z,32
2022-10-19T16:11:02.392Z,36
2022-10-19T16:13:33.332Z,36
2022-10-19T16:16:11.129Z,32
2022-10-19T16:18:37.030Z,32
2022-10-19T16:21:07.930Z,35
2022-10-19T16:23:41.834Z,36
2022-10-19T16:26:11.363Z,32
2022-10-19T16:28:42.778Z,36
2022-10-19T16:31:14.414Z,32
2022-10-19T16:33:45.562Z,32
2022-10-19T16:36:17.884Z,34
2022-10-19T16:38:49.297Z,32
2022-10-19T16:41:20.451Z,35
2022-10-19T16:43:52.148Z,36
2022-10-19T16:46:23.238Z,36
2022-10-19T16:48:54.613Z,36
2022-10-19T16:51:25.673Z,36
2022-10-19T16:53:58.045Z,36
2022-10-19T16:56:30.231Z,36
2022-10-19T16:59:01.351Z,36
2022-10-19T17:01:32.355Z,36
2022-10-19T17:04:04.315Z,36
2022-10-19T17:06:38.566Z,35
2022-10-19T17:09:40.619Z,36
2022-10-19T17:11:39.447Z,36
2022-10-19T17:14:11.157Z,35
2022-10-19T17:16:43.288Z,36
2022-10-19T17:19:14.598Z,32
2022-10-19T17:21:45.859Z,36
2022-10-19T17:24:21.559Z,31
2022-10-19T17:26:51.249Z,32
2022-10-19T17:29:22.263Z,32
2022-10-19T17:31:52.970Z,32
2022-10-19T17:34:22.684Z,30
2022-10-19T17:36:53.014Z,31
2022-10-19T17:39:24.310Z,28
2022-10-19T17:41:54.065Z,28
2022-10-19T17:47:01.977Z,28
2022-10-19T17:49:34.116Z,27
2022-10-19T17:52:05.099Z,31
2022-10-19T17:54:43.190Z,28
2022-10-19T17:57:07.591Z,28
2022-10-19T17:59:51.957Z,28
2022-10-19T18:02:11.384Z,26
2022-10-19T18:04:46.366Z,28
2022-10-19T18:07:17.690Z,26
2022-10-19T18:12:25.847Z,24
2022-10-19T18:14:57.297Z,25
2022-10-19T18:20:06.057Z,24
2022-10-19T18:22:38.319Z,23
2022-10-19T18:25:10.124Z,20
2022-10-19T18:27:41.586Z,24
2022-10-19T18:30:13.374Z,24
2022-10-19T18:32:44.220Z,24
2022-10-19T18:35:15.844Z,24
2022-10-19T18:37:47.440Z,24
2022-10-19T18:40:19.131Z,24
2022-10-19T18:42:50.005Z,24
2022-10-19T18:45:21.329Z,24
2022-10-19T18:47:52.924Z,28
2022-10-19T18:50:24.518Z,28
2022-10-19T18:52:56.248Z,25
2022-10-19T18:55:28.773Z,28
2022-10-19T18:57:58.772Z,28
2022-10-19T19:00:32.695Z,28
2022-10-19T19:03:04.297Z,28
2022-10-19T19:05:36.358Z,28
2022-10-19T19:08:10.004Z,28
2022-10-19T19:10:45.466Z,28
2022-10-19T19:13:17.371Z,28
2022-10-19T19:15:50.505Z,28
2022-10-19T19:18:22.521Z,28
2022-10-19T19:20:54.803Z,28
2022-10-19T19:23:26.359Z,28
2022-10-19T19:25:57.677Z,28
2022-10-19T19:28:29.401Z,28
2022-10-19T19:31:02.099Z,24
2022-10-19T19:33:34.028Z,28
2022-10-19T19:36:06.541Z,26
2022-10-19T19:38:38.723Z,27
2022-10-19T19:41:11.477Z,24
2022-10-19T19:43:41.581Z,24
2022-10-19T19:46:11.044Z,24
2022-10-19T19:48:44.705Z,24
2022-10-19T19:51:16.636Z,24
2022-10-19T19:53:47.178Z,24
2022-10-19T19:56:20.333Z,20
2022-10-19T19:58:52.215Z,24
2022-10-19T20:01:24.714Z,24
2022-10-19T20:03:58.438Z,24
2022-10-19T20:06:29.835Z,20
2022-10-19T20:11:41.998Z,20
2022-10-19T20:14:09.363Z,20
2022-10-19T20:16:41.818Z,16
2022-10-19T20:19:16.438Z,20
2022-10-19T20:21:47.744Z,16
2022-10-19T20:24:20.371Z,16
2022-10-19T20:26:51.850Z,16
2022-10-19T20:29:22.959Z,16
2022-10-19T20:31:54.674Z,15
2022-10-19T20:34:26.228Z,16
2022-10-19T20:36:57.875Z,16
2022-10-19T20:39:30.833Z,16
2022-10-19T20:42:04.229Z,12
2022-10-19T20:44:38.364Z,18
2022-10-19T20:47:09.563Z,13
2022-10-19T20:49:41.454Z,14
2022-10-19T20:52:13.510Z,12
2022-10-19T20:54:44.808Z,12
2022-10-19T20:57:16.714Z,15
2022-10-19T20:59:50.112Z,13
2022-10-19T21:02:22.392Z,15
2022-10-19T21:04:53.712Z,16
2022-10-19T21:07:25.261Z,12
2022-10-19T21:09:57.424Z,12
2022-10-19T21:12:28.512Z,12
2022-10-19T21:15:00.582Z,12
2022-10-19T21:17:32.806Z,12
2022-10-19T21:20:05.813Z,12
2022-10-19T21:22:37.989Z,12
2022-10-19T21:25:09.412Z,12
2022-10-19T21:27:40.810Z,12
2022-10-19T21:30:10.431Z,12
2022-10-19T21:32:41.262Z,12
2022-10-19T21:35:13.260Z,12
2022-10-19T21:37:45.147Z,12
2022-10-19T21:40:17.452Z,10
2022-10-19T21:42:48.763Z,12
2022-10-19T21:45:33.025Z,11
2022-10-19T21:47:51.497Z,12
2022-10-19T21:50:22.508Z,12
2022-10-19T21:52:53.654Z,12
2022-10-19T21:55:25.270Z,16
2022-10-19T21:57:56.581Z,12
2022-10-19T22:00:29.421Z,13
2022-10-19T22:03:01.370Z,12
2022-10-19T22:05:32.384Z,15
2022-10-19T22:08:03.438Z,18
2022-10-19T22:10:34.899Z,16
2022-10-19T22:13:08.310Z,14
2022-10-19T22:15:39.771Z,16
2022-10-19T22:18:10.965Z,20
2022-10-19T22:20:41.380Z,20
2022-10-19T22:23:11.785Z,12
2022-10-19T22:25:42.894Z,13
2022-10-19T22:28:13.619Z,24
2022-10-19T22:30:44.447Z,26
2022-10-19T22:33:14.797Z,26
2022-10-19T22:35:46.013Z,20
2022-10-19T22:38:17.424Z,20
2022-10-19T22:40:48.773Z,16
2022-10-19T22:43:19.708Z,20
2022-10-19T22:45:51.505Z,20
2022-10-19T22:48:22.418Z,16
2022-10-19T22:50:53.300Z,16
2022-10-19T22:53:25.207Z,17
2022-10-19T22:55:56.326Z,16
2022-10-19T22:58:28.050Z,16
2022-10-19T23:00:59.425Z,12
2022-10-19T23:03:30.579Z,16
2022-10-19T23:06:01.520Z,16
2022-10-19T23:08:32.380Z,16
2022-10-19T23:11:03.154Z,20
2022-10-19T23:13:34.729Z,20
2022-10-19T23:16:05.611Z,20
2022-10-19T23:18:36.739Z,16
2022-10-19T23:21:07.946Z,16
2022-10-19T23:23:39.666Z,18
2022-10-19T23:26:13.180Z,16
2022-10-19T23:28:44.053Z,16
2022-10-19T23:31:17.238Z,16
2022-10-19T23:33:48.170Z,16
2022-10-19T23:36:19.567Z,20
2022-10-19T23:38:50.990Z,20
2022-10-19T23:41:22.457Z,20
2022-10-19T23:43:53.545Z,16
2022-10-19T23:46:24.570Z,16
2022-10-19T23:48:55.799Z,17
2022-10-19T23:51:29.296Z,17
2022-10-19T23:54:00.893Z,16
2022-10-19T23:56:31.798Z,17
2022-10-19T23:59:02.024Z,20
